Time;durP1;ratioP1;P1;durP2;ratioP2;P2;SDS_P1;SDS_P2;PMS_P1;PMS_P2;Temp;Humidity;BMP_temperature;BMP_pressure;BME280_temperature;BME280_humidity;BME280_pressure;Samples;Min_cycle;Max_cycle;Signal;HPM_P1;HPM_P2
2022/01/05 00:01:20;;;;;;;12.95;2.15;;;4.30;99.90;;;;;;5031205;28;20041;-71
2022/01/05 00:03:45;;;;;;;14.75;2.40;;;4.30;99.90;;;;;;5029872;28;20494;-71
2022/01/05 00:06:11;;;;;;;6.78;2.03;;;4.20;99.90;;;;;;5029736;28;20048;-71
2022/01/05 00:08:37;;;;;;;12.27;2.33;;;4.20;99.90;;;;;;5030030;28;20033;-72
2022/01/05 00:11:02;;;;;;;9.77;2.70;;;4.30;99.90;;;;;;5030715;28;20049;-71
2022/01/05 00:13:28;;;;;;;9.90;2.85;;;4.20;99.90;;;;;;5030438;28;20508;-72
2022/01/05 00:15:53;;;;;;;12.80;2.13;;;4.20;99.90;;;;;;5033277;28;20149;-71
2022/01/05 00:18:19;;;;;;;5.70;2.15;;;4.20;99.90;;;;;;5032800;28;20045;-72
2022/01/05 00:20:45;;;;;;;16.33;3.03;;;4.20;99.90;;;;;;5030580;28;20482;-73
2022/01/05 00:23:10;;;;;;;7.60;1.90;;;4.20;99.90;;;;;;5029461;28;20049;-71
2022/01/05 00:25:36;;;;;;;15.65;2.83;;;4.20;99.90;;;;;;5029671;28;20049;-72
2022/01/05 00:28:02;;;;;;;9.77;2.40;;;4.20;99.90;;;;;;5029535;28;20124;-71
2022/01/05 00:30:28;;;;;;;7.85;2.20;;;4.20;99.90;;;;;;5030821;28;20398;-71
2022/01/05 00:32:54;;;;;;;10.25;2.15;;;4.20;99.90;;;;;;5030422;28;20041;-71
2022/01/05 00:35:19;;;;;;;10.60;1.90;;;4.10;99.90;;;;;;5030786;28;20037;-71
2022/01/05 00:37:45;;;;;;;9.80;2.00;;;4.20;99.90;;;;;;5033426;28;20041;-72
2022/01/05 00:40:11;;;;;;;12.25;2.78;;;4.10;99.90;;;;;;5033444;28;20072;-71
2022/01/05 00:42:36;;;;;;;5.72;1.60;;;4.20;99.90;;;;;;5034432;28;20504;-72
2022/01/05 00:45:03;;;;;;;8.23;2.90;;;4.20;99.90;;;;;;5033415;28;20068;-71
2022/01/05 00:47:29;;;;;;;8.55;1.55;;;4.30;99.90;;;;;;5034666;28;20498;-71
2022/01/05 00:49:54;;;;;;;9.45;2.08;;;4.30;99.90;;;;;;5034853;28;20037;-71
2022/01/05 00:52:20;;;;;;;10.35;2.33;;;4.30;99.90;;;;;;5034538;28;20063;-70
2022/01/05 00:54:46;;;;;;;7.15;1.90;;;4.20;99.90;;;;;;5034460;28;20482;-71
2022/01/05 00:57:11;;;;;;;11.25;1.83;;;4.20;99.90;;;;;;5033013;28;20492;-71
2022/01/05 00:59:37;;;;;;;7.80;1.88;;;4.20;99.90;;;;;;5034561;28;20049;-71
2022/01/05 01:02:03;;;;;;;12.95;1.90;;;4.20;99.90;;;;;;5034105;28;20034;-71
2022/01/05 01:04:28;;;;;;;5.38;1.45;;;4.20;99.90;;;;;;5033020;28;20073;-71
2022/01/05 01:06:54;;;;;;;7.95;2.15;;;4.20;99.90;;;;;;5016748;28;20390;-71
2022/01/05 01:09:23;;;;;;;11.13;2.17;;;4.20;99.90;;;;;;5033944;28;20505;-70
2022/01/05 01:11:48;;;;;;;6.75;1.70;;;4.20;99.90;;;;;;5033991;28;20045;-71
2022/01/05 01:14:14;;;;;;;8.25;1.58;;;4.10;99.90;;;;;;5034300;28;20041;-71
2022/01/05 01:16:40;;;;;;;8.52;1.58;;;4.20;99.90;;;;;;5032867;28;20076;-72
2022/01/05 01:19:05;;;;;;;5.88;1.80;;;4.10;99.90;;;;;;5034128;28;20077;-71
2022/01/05 01:21:31;;;;;;;10.65;2.17;;;4.10;99.90;;;;;;5033740;28;20045;-74
2022/01/05 01:23:57;;;;;;;6.03;1.75;;;4.00;99.90;;;;;;5034052;28;20497;-70
2022/01/05 01:26:24;;;;;;;12.30;2.30;;;4.00;99.90;;;;;;5034008;28;20524;-71
2022/01/05 01:28:50;;;;;;;6.82;1.88;;;4.10;99.90;;;;;;5033995;28;20041;-70
2022/01/05 01:31:16;;;;;;;6.75;1.98;;;4.10;99.90;;;;;;5033792;28;20048;-72
2022/01/05 01:33:42;;;;;;;9.13;2.20;;;4.00;99.90;;;;;;5032240;28;20501;-73
2022/01/05 01:36:08;;;;;;;12.60;2.65;;;4.00;99.90;;;;;;5034365;28;20052;-71
2022/01/05 01:38:33;;;;;;;10.30;1.88;;;4.00;99.90;;;;;;5037431;28;20030;-71
2022/01/05 01:40:59;;;;;;;8.73;2.15;;;4.00;99.90;;;;;;5034441;28;20116;-71
2022/01/05 01:43:24;;;;;;;10.70;2.00;;;3.90;99.90;;;;;;5033421;28;20034;-73
2022/01/05 01:45:50;;;;;;;10.68;3.13;;;4.00;99.90;;;;;;5033702;28;20049;-70
2022/01/05 01:48:15;;;;;;;12.52;2.67;;;3.90;99.90;;;;;;5033285;28;20045;-71
2022/01/05 01:50:41;;;;;;;9.90;2.00;;;3.90;99.90;;;;;;5033299;28;20402;-72
2022/01/05 01:53:07;;;;;;;4.43;1.70;;;3.90;99.90;;;;;;5015309;28;20045;-71
2022/01/05 01:55:34;;;;;;;7.07;2.25;;;3.90;99.90;;;;;;5033532;28;20077;-71
2022/01/05 01:58:00;;;;;;;7.90;2.00;;;3.80;99.90;;;;;;5033285;28;20037;-71
2022/01/05 02:00:26;;;;;;;12.10;2.22;;;3.90;99.90;;;;;;5032003;28;20103;-71
2022/01/05 02:02:52;;;;;;;10.93;2.25;;;3.90;99.90;;;;;;5033015;28;20029;-71
2022/01/05 02:05:17;;;;;;;9.60;2.42;;;3.90;99.90;;;;;;5031803;28;20583;-71
2022/01/05 02:07:43;;;;;;;9.05;1.80;;;3.90;99.90;;;;;;5031945;28;20048;-71
2022/01/05 02:10:10;;;;;;;8.70;2.15;;;3.90;99.90;;;;;;5032874;28;20073;-71
2022/01/05 02:12:36;;;;;;;10.48;2.15;;;4.00;99.90;;;;;;5031399;28;20030;-71
2022/01/05 02:15:02;;;;;;;15.40;2.85;;;3.90;99.90;;;;;;5031828;28;20037;-71
2022/01/05 02:17:44;;;;;;;18.15;2.85;;;3.70;99.90;;;;;;5033014;28;20490;-70
2022/01/05 02:20:16;;;;;;;12.10;2.03;;;3.80;99.90;;;;;;5032093;28;20045;-71
2022/01/05 02:22:42;;;;;;;7.35;2.22;;;3.90;99.90;;;;;;5031558;28;20049;-71
2022/01/05 02:25:08;;;;;;;15.45;2.35;;;3.80;99.90;;;;;;5032902;28;20045;-71
2022/01/05 02:27:33;;;;;;;12.10;2.33;;;3.80;99.90;;;;;;5031499;28;20049;-70
2022/01/05 02:29:59;;;;;;;9.82;1.85;;;3.80;99.90;;;;;;5032965;28;20044;-70
2022/01/05 02:32:24;;;;;;;10.77;2.00;;;3.80;99.90;;;;;;5032518;28;20120;-70
2022/01/05 02:34:50;;;;;;;13.90;2.22;;;3.70;99.90;;;;;;5032645;28;20048;-70
2022/01/05 02:37:15;;;;;;;11.32;2.65;;;3.70;99.90;;;;;;5032608;28;20038;-71
2022/01/05 02:39:41;;;;;;;8.90;2.55;;;3.80;99.90;;;;;;5031553;28;20091;-70
2022/01/05 02:42:07;;;;;;;14.75;2.30;;;3.70;99.90;;;;;;5032135;28;20167;-70
2022/01/05 02:44:32;;;;;;;15.05;3.13;;;3.70;99.90;;;;;;5032668;28;20132;-70
2022/01/05 02:46:58;;;;;;;10.52;2.33;;;3.70;99.90;;;;;;5031352;28;20040;-70
2022/01/05 02:49:26;;;;;;;10.88;2.25;;;3.90;99.90;;;;;;5031078;28;20087;-72
2022/01/05 02:51:52;;;;;;;7.82;1.80;;;3.80;99.90;;;;;;5047371;28;20048;-70
2022/01/05 02:54:17;;;;;;;9.93;2.10;;;3.80;99.90;;;;;;5032346;28;20482;-72
2022/01/05 02:56:43;;;;;;;11.32;2.30;;;3.80;99.90;;;;;;5033948;28;20041;-70
2022/01/05 02:59:09;;;;;;;11.18;2.00;;;3.80;99.90;;;;;;5033477;28;20038;-71
2022/01/05 03:01:36;;;;;;;10.45;2.45;;;3.90;99.90;;;;;;5032362;28;20045;-71
2022/01/05 03:04:02;;;;;;;13.52;2.88;;;3.70;99.90;;;;;;5032060;28;20052;-70
2022/01/05 03:06:27;;;;;;;10.77;1.90;;;3.80;99.90;;;;;;5032205;28;20045;-70
2022/01/05 03:08:53;;;;;;;13.07;1.88;;;3.80;99.90;;;;;;5031728;28;20064;-70
2022/01/05 03:11:18;;;;;;;8.73;1.95;;;3.80;99.90;;;;;;5030762;28;20037;-70
2022/01/05 03:13:44;;;;;;;12.63;2.53;;;3.90;99.90;;;;;;5031685;28;20033;-71
2022/01/05 03:16:10;;;;;;;9.00;2.10;;;3.90;99.90;;;;;;5031776;28;20099;-69
2022/01/05 03:18:35;;;;;;;10.70;2.17;;;3.90;99.90;;;;;;5030576;28;20052;-71
2022/01/05 03:21:01;;;;;;;12.43;1.98;;;4.00;99.90;;;;;;5031783;28;20038;-71
2022/01/05 03:23:26;;;;;;;11.30;3.20;;;3.90;99.90;;;;;;5031436;28;20472;-72
2022/01/05 03:25:54;;;;;;;6.97;2.40;;;3.90;99.90;;;;;;5031659;28;20033;-70
2022/01/05 03:28:19;;;;;;;8.43;2.58;;;3.90;99.90;;;;;;5030258;28;20156;-70
2022/01/05 03:30:45;;;;;;;10.02;2.05;;;3.90;99.90;;;;;;5031523;28;20149;-71
2022/01/05 03:33:19;;;;;;;11.73;2.45;;;3.90;99.90;;;;;;5030061;28;20445;-70
2022/01/05 03:35:45;;;;;;;8.65;1.90;;;3.90;99.90;;;;;;5030386;28;20094;-70
2022/01/05 03:38:15;;;;;;;14.65;2.20;;;4.00;99.90;;;;;;5031366;28;20171;-70
2022/01/05 03:40:40;;;;;;;13.18;2.42;;;3.80;99.90;;;;;;5031521;28;20429;-72
2022/01/05 03:43:07;;;;;;;13.60;2.65;;;3.90;99.90;;;;;;5030108;28;20045;-70
2022/01/05 03:45:35;;;;;;;14.35;2.50;;;3.90;99.90;;;;;;5031478;28;20044;-70
2022/01/05 03:48:01;;;;;;;14.45;2.35;;;3.90;99.90;;;;;;5031410;28;20103;-70
2022/01/05 03:50:27;;;;;;;8.98;2.30;;;3.90;99.90;;;;;;5031140;28;20118;-71
2022/01/05 03:52:53;;;;;;;12.13;2.17;;;3.80;99.90;;;;;;5031034;28;20084;-70
2022/01/05 03:55:18;;;;;;;13.20;2.90;;;3.90;99.90;;;;;;5013396;28;20034;-70
2022/01/05 03:57:44;;;;;;;9.95;2.22;;;3.80;99.90;;;;;;5031357;28;20042;-70
2022/01/05 04:00:10;;;;;;;7.45;2.22;;;3.80;99.90;;;;;;5031333;28;20092;-70
2022/01/05 04:02:36;;;;;;;9.73;2.35;;;3.80;99.90;;;;;;5030851;28;20069;-70
2022/01/05 04:05:01;;;;;;;13.93;1.98;;;3.80;99.90;;;;;;5030193;28;20507;-70
2022/01/05 04:07:27;;;;;;;13.23;2.28;;;3.80;99.90;;;;;;5031173;28;20045;-70
2022/01/05 04:09:52;;;;;;;9.50;2.33;;;3.80;99.90;;;;;;5030977;28;20041;-69
2022/01/05 04:12:18;;;;;;;16.60;3.95;;;3.80;99.90;;;;;;5030672;28;20049;-69
2022/01/05 04:14:43;;;;;;;20.08;3.25;;;3.70;99.90;;;;;;5031500;28;20041;-70
2022/01/05 04:17:09;;;;;;;12.85;2.38;;;3.80;99.90;;;;;;5031391;28;20041;-70
2022/01/05 04:19:35;;;;;;;21.95;3.75;;;3.80;99.90;;;;;;5030239;28;20040;-70
2022/01/05 04:22:02;;;;;;;10.82;3.03;;;3.80;99.90;;;;;;5030868;28;20415;-69
2022/01/05 04:24:27;;;;;;;16.88;2.70;;;3.80;99.90;;;;;;5030993;28;20434;-72
2022/01/05 04:26:53;;;;;;;13.48;2.45;;;3.80;99.90;;;;;;5030836;28;20047;-70
2022/01/05 04:29:18;;;;;;;13.57;2.92;;;3.80;99.90;;;;;;5030809;28;20077;-70
2022/01/05 04:31:45;;;;;;;17.13;3.53;;;3.90;99.90;;;;;;5029216;28;20053;-70
2022/01/05 04:34:11;;;;;;;31.48;5.50;;;3.90;99.90;;;;;;5029431;28;20102;-70
2022/01/05 04:36:37;;;;;;;11.25;2.47;;;3.80;99.90;;;;;;5030793;28;20049;-70
2022/01/05 04:39:03;;;;;;;12.38;2.97;;;3.80;99.90;;;;;;5030859;28;20257;-69
2022/01/05 04:41:28;;;;;;;15.90;2.75;;;3.80;99.90;;;;;;5030631;28;20043;-70
2022/01/05 04:43:54;;;;;;;11.02;2.80;;;3.80;99.90;;;;;;5030497;28;20037;-70
2022/01/05 04:46:19;;;;;;;14.85;3.35;;;3.80;99.90;;;;;;5030589;28;20057;-70
2022/01/05 04:48:45;;;;;;;14.18;2.47;;;3.80;99.90;;;;;;5030676;28;20052;-71
2022/01/05 04:51:11;;;;;;;9.73;3.40;;;3.80;99.90;;;;;;5029312;28;20056;-69
2022/01/05 04:53:36;;;;;;;12.82;3.03;;;3.90;99.90;;;;;;5030409;28;20088;-70
2022/01/05 04:56:02;;;;;;;16.08;2.80;;;3.80;99.90;;;;;;5030599;28;20068;-70
2022/01/05 04:58:27;;;;;;;21.48;2.90;;;3.80;99.90;;;;;;5030646;28;20543;-69
2022/01/05 05:00:54;;;;;;;13.32;2.75;;;3.80;99.90;;;;;;5029224;28;20128;-70
2022/01/05 05:03:19;;;;;;;14.32;3.20;;;3.90;99.90;;;;;;5030338;28;20437;-70
2022/01/05 05:05:45;;;;;;;14.50;2.53;;;3.80;99.90;;;;;;5030447;28;20047;-70
2022/01/05 05:08:10;;;;;;;12.23;3.15;;;3.80;99.90;;;;;;5030475;28;20049;-70
2022/01/05 05:10:36;;;;;;;14.95;3.22;;;3.70;99.90;;;;;;5030190;28;20068;-71
2022/01/05 05:13:14;;;;;;;21.08;3.50;;;3.80;99.90;;;;;;5029030;28;20041;-70
2022/01/05 05:15:41;;;;;;;11.35;2.50;;;3.90;99.90;;;;;;5029427;28;20087;-69
2022/01/05 05:18:07;;;;;;;10.65;2.63;;;3.80;99.90;;;;;;5030728;28;20037;-70
2022/01/05 05:20:33;;;;;;;11.65;2.90;;;3.80;99.90;;;;;;5030595;28;20137;-71
2022/01/05 05:23:02;;;;;;;14.40;2.42;;;3.80;99.90;;;;;;5031168;28;20052;-71
2022/01/05 05:25:28;;;;;;;9.25;2.35;;;3.80;99.90;;;;;;5033898;28;20029;-70
2022/01/05 05:27:53;;;;;;;9.80;2.63;;;3.80;99.90;;;;;;5032375;28;20507;-70
2022/01/05 05:30:19;;;;;;;10.30;2.47;;;3.90;99.90;;;;;;5032805;28;20038;-70
2022/01/05 05:32:45;;;;;;;15.70;2.55;;;3.90;99.90;;;;;;5033609;28;20406;-70
2022/01/05 05:35:11;;;;;;;10.52;2.60;;;3.90;99.90;;;;;;5033790;28;20453;-70
2022/01/05 05:37:36;;;;;;;16.48;2.33;;;4.00;99.90;;;;;;5033650;28;20052;-70
2022/01/05 05:40:03;;;;;;;12.52;2.88;;;4.00;99.90;;;;;;5034719;28;20037;-70
2022/01/05 05:42:28;;;;;;;20.35;2.70;;;4.00;99.90;;;;;;5034233;28;20049;-69
2022/01/05 05:44:54;;;;;;;8.60;2.10;;;4.10;99.90;;;;;;5032705;28;20048;-69
2022/01/05 05:47:20;;;;;;;8.63;1.95;;;4.10;99.90;;;;;;5033589;28;20094;-70
2022/01/05 05:49:46;;;;;;;13.75;3.20;;;4.10;99.90;;;;;;5032587;28;20409;-70
2022/01/05 05:52:15;;;;;;;9.77;2.75;;;4.20;99.90;;;;;;5033257;28;20049;-71
2022/01/05 05:54:41;;;;;;;15.90;3.33;;;4.10;99.90;;;;;;5033425;28;20041;-70
2022/01/05 05:57:07;;;;;;;12.82;2.67;;;4.10;99.90;;;;;;5032041;28;20049;-70
2022/01/05 05:59:33;;;;;;;16.00;3.03;;;4.20;99.90;;;;;;5033389;28;20042;-69
2022/01/05 06:01:58;;;;;;;11.50;2.88;;;4.10;99.90;;;;;;5031637;28;20041;-70
2022/01/05 06:04:24;;;;;;;15.25;3.10;;;4.10;99.90;;;;;;5032216;28;20489;-69
2022/01/05 06:06:50;;;;;;;6.75;2.45;;;4.10;99.90;;;;;;5033228;28;20046;-70
2022/01/05 06:09:15;;;;;;;15.57;3.13;;;4.10;99.90;;;;;;5032885;28;20136;-70
2022/01/05 06:11:41;;;;;;;14.13;2.42;;;4.10;99.90;;;;;;5031661;28;20056;-69
2022/01/05 06:14:06;;;;;;;14.15;2.47;;;4.20;99.90;;;;;;5031990;28;20131;-70
2022/01/05 06:16:32;;;;;;;15.90;2.90;;;4.20;99.90;;;;;;5033019;28;20037;-70
2022/01/05 06:18:57;;;;;;;21.30;3.08;;;4.20;99.90;;;;;;5033019;28;20064;-70
2022/01/05 06:21:23;;;;;;;13.88;2.28;;;4.20;99.90;;;;;;5032724;28;20557;-69
2022/01/05 06:23:48;;;;;;;14.27;2.60;;;4.30;99.90;;;;;;5032788;28;20433;-69
2022/01/05 06:26:14;;;;;;;16.00;2.67;;;4.30;99.90;;;;;;5032983;28;20516;-70
2022/01/05 06:28:40;;;;;;;14.98;2.80;;;4.30;99.90;;;;;;5032697;28;20041;-69
2022/01/05 06:31:05;;;;;;;12.00;2.70;;;4.30;99.90;;;;;;5032644;28;20069;-71
2022/01/05 06:33:31;;;;;;;16.45;4.72;;;4.40;99.90;;;;;;5014462;28;20465;-69
2022/01/05 06:35:56;;;;;;;16.15;1.80;;;4.40;99.90;;;;;;5014136;28;20049;-70
2022/01/05 06:38:22;;;;;;;13.05;2.95;;;4.40;99.90;;;;;;5031306;28;20090;-71
2022/01/05 06:40:47;;;;;;;13.95;2.20;;;4.40;99.90;;;;;;5031264;28;20434;-70
2022/01/05 06:43:14;;;;;;;8.65;2.10;;;4.50;99.90;;;;;;5032430;28;20481;-71
2022/01/05 06:45:40;;;;;;;11.70;2.53;;;4.50;99.90;;;;;;5032589;28;20428;-71
2022/01/05 06:48:05;;;;;;;11.38;2.65;;;4.60;99.90;;;;;;5031326;28;20117;-71
2022/01/05 06:50:31;;;;;;;13.65;1.90;;;4.60;99.90;;;;;;5032278;28;20101;-71
2022/01/05 06:52:56;;;;;;;14.82;2.83;;;4.50;99.90;;;;;;5032299;28;20091;-72
2022/01/05 06:55:23;;;;;;;16.42;3.20;;;4.60;99.90;;;;;;5031157;28;20466;-71
2022/01/05 06:57:51;;;;;;;15.27;3.42;;;4.50;99.90;;;;;;5032236;28;20045;-71
2022/01/05 07:00:17;;;;;;;17.75;3.70;;;4.60;99.90;;;;;;5032194;28;20045;-73
2022/01/05 07:02:43;;;;;;;18.67;2.55;;;4.60;99.90;;;;;;5031958;28;20061;-73
2022/01/05 07:05:09;;;;;;;13.45;2.25;;;4.50;99.90;;;;;;5030694;28;20033;-72
2022/01/05 07:07:35;;;;;;;9.43;2.15;;;4.50;99.90;;;;;;5032474;28;20051;-73
2022/01/05 07:10:01;;;;;;;14.50;2.38;;;4.60;99.90;;;;;;5031727;28;20501;-74
2022/01/05 07:12:26;;;;;;;17.00;2.90;;;4.60;99.90;;;;;;5030361;28;20041;-75
2022/01/05 07:14:52;;;;;;;12.98;3.03;;;4.50;99.90;;;;;;5030598;28;20064;-74
2022/01/05 07:17:18;;;;;;;6.32;1.88;;;4.50;99.90;;;;;;5030500;28;20417;-74
2022/01/05 07:19:44;;;;;;;11.02;1.92;;;4.50;99.90;;;;;;5047154;28;20040;-74
2022/01/05 07:22:10;;;;;;;7.82;1.83;;;4.50;99.90;;;;;;5030150;28;20049;-74
2022/01/05 07:24:35;;;;;;;4.43;1.60;;;4.50;99.90;;;;;;5030707;28;20041;-74
2022/01/05 07:27:01;;;;;;;5.25;2.08;;;4.50;99.90;;;;;;5030337;28;20045;-74
2022/01/05 07:29:27;;;;;;;7.45;1.30;;;4.50;99.90;;;;;;5030424;28;20490;-74
2022/01/05 07:31:52;;;;;;;7.65;2.47;;;4.40;99.90;;;;;;5029989;28;20584;-72
2022/01/05 07:34:18;;;;;;;4.75;1.63;;;4.50;99.90;;;;;;5030590;28;20052;-73
2022/01/05 07:36:44;;;;;;;5.60;1.60;;;4.40;99.90;;;;;;5021712;28;20053;-73
2022/01/05 07:39:10;;;;;;;8.45;2.10;;;4.40;99.90;;;;;;5026764;28;20091;-72
2022/01/05 07:41:36;;;;;;;6.68;1.75;;;4.40;99.90;;;;;;5026181;28;20044;-72
2022/01/05 07:44:03;;;;;;;5.43;1.65;;;4.30;99.90;;;;;;4993558;28;20065;-73
2022/01/05 07:46:29;;;;;;;8.73;1.80;;;4.30;99.90;;;;;;5011324;28;20096;-73
2022/01/05 07:48:54;;;;;;;6.45;1.80;;;4.30;99.90;;;;;;5030756;28;20449;-74
2022/01/05 07:51:20;;;;;;;6.57;1.77;;;4.20;99.90;;;;;;5029775;28;20041;-74
2022/01/05 07:53:46;;;;;;;12.55;2.95;;;4.20;99.90;;;;;;5031133;28;20116;-76
2022/01/05 07:56:12;;;;;;;8.43;2.25;;;4.20;99.90;;;;;;5029389;28;20501;-73
2022/01/05 07:58:38;;;;;;;14.07;2.85;;;4.20;99.90;;;;;;5013692;28;20493;-73
2022/01/05 08:01:04;;;;;;;8.10;2.72;;;4.20;99.90;;;;;;5037227;28;20041;-73
2022/01/05 08:03:33;;;;;;;8.38;2.38;;;4.10;99.90;;;;;;5044825;28;20072;-73
2022/01/05 08:06:00;;;;;;;15.35;3.45;;;4.00;99.90;;;;;;5051456;28;20085;-74
2022/01/05 08:08:26;;;;;;;9.20;2.25;;;4.00;99.90;;;;;;5053606;28;20099;-74
2022/01/05 08:10:52;;;;;;;9.45;2.65;;;4.10;99.90;;;;;;5043113;28;20034;-73
2022/01/05 08:13:18;;;;;;;7.63;2.50;;;4.10;99.90;;;;;;5029008;28;20057;-73
2022/01/05 08:15:43;;;;;;;11.15;2.38;;;4.10;99.90;;;;;;5028408;28;20041;-74
2022/01/05 08:18:09;;;;;;;13.52;3.08;;;4.10;99.90;;;;;;5030244;28;20069;-74
2022/01/05 08:20:34;;;;;;;6.93;2.42;;;4.20;99.90;;;;;;5030934;28;20095;-74
2022/01/05 08:23:00;;;;;;;18.33;3.17;;;4.20;99.90;;;;;;5031176;28;20402;-74
2022/01/05 08:25:26;;;;;;;13.75;2.67;;;4.30;99.90;;;;;;5035094;28;20498;-74
2022/01/05 08:27:51;;;;;;;15.98;3.38;;;4.40;99.90;;;;;;5044975;28;20045;-73
2022/01/05 08:30:20;;;;;;;18.55;2.70;;;4.40;99.90;;;;;;5031714;28;20073;-72
2022/01/05 08:32:47;;;;;;;17.05;3.70;;;4.50;99.90;;;;;;5012663;28;20037;-72
2022/01/05 08:35:14;;;;;;;12.95;2.13;;;4.60;99.90;;;;;;5027927;28;20107;-72
2022/01/05 08:37:44;;;;;;;16.50;2.53;;;4.70;99.90;;;;;;5028924;28;20045;-74
2022/01/05 08:40:11;;;;;;;8.23;2.10;;;4.70;99.90;;;;;;5029557;28;20520;-75
2022/01/05 08:42:38;;;;;;;11.80;1.88;;;4.70;99.90;;;;;;5030763;28;20033;-75
2022/01/05 08:45:04;;;;;;;11.95;2.78;;;4.80;99.90;;;;;;5029664;28;20041;-72
2022/01/05 08:47:30;;;;;;;7.60;1.75;;;4.80;99.90;;;;;;5027388;28;20490;-71
2022/01/05 08:49:56;;;;;;;14.68;2.13;;;4.80;99.90;;;;;;5027203;28;20048;-72
2022/01/05 08:52:21;;;;;;;9.20;1.90;;;4.90;99.90;;;;;;5010346;28;20058;-72
2022/01/05 08:54:47;;;;;;;14.05;3.30;;;4.90;99.90;;;;;;5009482;28;20052;-73
2022/01/05 08:57:13;;;;;;;10.05;2.03;;;4.90;99.90;;;;;;5009104;28;20538;-73
2022/01/05 08:59:40;;;;;;;14.70;2.45;;;4.90;99.90;;;;;;5013537;28;20042;-73
2022/01/05 09:02:06;;;;;;;4.60;2.20;;;5.00;99.90;;;;;;5011862;28;20543;-74
2022/01/05 09:04:32;;;;;;;5.43;1.85;;;5.00;99.90;;;;;;5032865;28;20045;-74
2022/01/05 09:06:59;;;;;;;9.25;2.50;;;5.10;99.90;;;;;;5034270;28;20033;-74
2022/01/05 09:09:25;;;;;;;8.40;1.98;;;5.10;99.90;;;;;;5032912;28;20041;-74
2022/01/05 09:11:51;;;;;;;7.63;1.88;;;5.10;99.90;;;;;;5032386;28;20115;-73
2022/01/05 09:14:16;;;;;;;7.35;2.20;;;5.10;99.90;;;;;;5034468;28;20052;-73
2022/01/05 09:16:43;;;;;;;8.30;2.58;;;5.20;99.90;;;;;;5032999;28;20041;-72
2022/01/05 09:19:08;;;;;;;12.50;2.08;;;5.20;99.90;;;;;;5032985;28;20065;-73
2022/01/05 09:21:34;;;;;;;10.60;2.00;;;5.30;99.90;;;;;;5034486;28;20509;-72
2022/01/05 09:24:00;;;;;;;8.35;1.92;;;5.30;99.90;;;;;;5039687;28;20171;-73
2022/01/05 09:26:25;;;;;;;12.13;2.08;;;5.40;99.90;;;;;;5041915;28;20049;-72
2022/01/05 09:28:54;;;;;;;12.70;1.88;;;5.40;99.90;;;;;;5041205;28;20073;-72
2022/01/05 09:31:19;;;;;;;9.73;1.63;;;5.50;99.90;;;;;;5037454;28;20190;-72
2022/01/05 09:33:45;;;;;;;4.00;1.70;;;5.60;99.90;;;;;;5033614;28;20116;-72
2022/01/05 09:36:18;;;;;;;10.30;2.35;;;5.50;99.90;;;;;;5016110;28;20104;-72
2022/01/05 09:44:06;;;;;;;8.57;2.30;;;5.60;99.90;;;;;;5030932;28;20128;-72
2022/01/05 09:46:44;;;;;;;25.90;6.25;;;5.60;99.90;;;;;;5033043;28;20049;-72
2022/01/05 09:49:16;;;;;;;27.08;7.57;;;5.60;99.90;;;;;;5034454;28;20076;-72
2022/01/05 09:51:42;;;;;;;39.90;10.43;;;5.60;99.90;;;;;;5032026;28;20559;-73
2022/01/05 09:54:12;;;;;;;15.50;2.80;;;5.70;99.90;;;;;;5032075;28;20167;-74
2022/01/05 09:56:38;;;;;;;8.80;3.17;;;5.70;99.90;;;;;;5033335;28;20048;-72
2022/01/05 09:59:04;;;;;;;13.75;2.40;;;5.70;99.90;;;;;;5032281;28;20045;-72
2022/01/05 10:01:34;;;;;;;10.80;1.80;;;5.80;99.90;;;;;;5033246;28;20038;-75
2022/01/05 10:04:01;;;;;;;10.95;2.33;;;5.80;99.90;;;;;;5015621;28;20072;-72
2022/01/05 10:06:27;;;;;;;14.45;2.63;;;5.90;99.90;;;;;;5033127;28;20053;-74
2022/01/05 10:08:53;;;;;;;12.55;2.60;;;5.90;99.90;;;;;;5031844;28;20045;-72
2022/01/05 10:11:22;;;;;;;19.38;3.20;;;5.90;99.90;;;;;;5032112;28;20045;-73
2022/01/05 10:13:48;;;;;;;12.35;3.08;;;5.90;99.90;;;;;;5032897;28;20128;-72
2022/01/05 10:16:14;;;;;;;20.95;3.30;;;5.90;99.90;;;;;;5033082;28;20038;-72
2022/01/05 10:18:42;;;;;;;21.15;4.32;;;5.90;99.90;;;;;;5031957;28;20096;-73
2022/01/05 10:21:08;;;;;;;15.48;3.25;;;6.00;99.90;;;;;;5032907;28;20084;-72
2022/01/05 10:24:06;;;;;;;19.85;4.00;;;6.00;99.90;;;;;;5031361;28;20037;-73
2022/01/05 10:26:40;;;;;;;18.25;4.50;;;6.00;99.90;;;;;;5009853;28;20053;-73
2022/01/05 10:29:07;;;;;;;27.60;5.22;;;6.10;99.90;;;;;;5031450;28;20132;-72
2022/01/05 10:31:35;;;;;;;23.60;7.10;;;6.10;99.90;;;;;;5032817;28;20073;-72
2022/01/05 10:34:17;;;;;;;44.45;10.18;;;6.10;99.90;;;;;;5031209;28;20045;-71
2022/01/05 10:36:51;;;;;;;25.95;5.95;;;6.10;99.90;;;;;;5032689;28;20668;-73
2022/01/05 10:39:28;;;;;;;20.00;4.30;;;6.20;99.90;;;;;;5032742;28;20048;-73
2022/01/05 10:41:53;;;;;;;21.35;3.70;;;6.20;99.90;;;;;;5032522;28;20041;-73
2022/01/05 10:44:21;;;;;;;14.68;3.45;;;6.30;99.90;;;;;;5032713;28;20121;-72
2022/01/05 10:46:55;;;;;;;24.70;3.47;;;6.30;99.90;;;;;;5032458;28;20563;-73
2022/01/05 10:49:37;;;;;;;17.50;3.70;;;6.30;99.90;;;;;;5031254;28;20042;-72
2022/01/05 10:52:28;;;;;;;19.25;3.22;;;6.40;99.90;;;;;;5032098;28;20129;-71
2022/01/05 10:55:06;;;;;;;26.83;3.13;;;6.50;99.90;;;;;;5032602;28;20441;-72
2022/01/05 10:57:32;;;;;;;17.33;3.20;;;6.50;99.90;;;;;;5032085;28;20072;-73
2022/01/05 10:59:58;;;;;;;18.65;3.08;;;6.50;99.90;;;;;;5031899;28;20506;-73
2022/01/05 11:02:30;;;;;;;21.02;3.25;;;6.50;99.90;;;;;;5030227;28;20513;-73
2022/01/05 11:05:08;;;;;;;17.95;3.20;;;6.50;99.90;;;;;;5030984;28;20520;-71
2022/01/05 11:07:39;;;;;;;19.33;2.85;;;6.60;99.90;;;;;;5031222;28;20103;-73
2022/01/05 11:10:13;;;;;;;13.48;2.53;;;6.60;99.90;;;;;;5022059;28;20045;-71
2022/01/05 11:12:41;;;;;;;15.82;3.13;;;6.60;99.90;;;;;;5024548;28;20065;-72
2022/01/05 11:15:20;;;;;;;26.33;3.05;;;6.60;99.90;;;;;;5021305;28;20064;-72
2022/01/05 11:18:19;;;;;;;16.20;2.80;;;6.70;99.90;;;;;;5022681;28;20164;-72
2022/01/05 11:20:52;;;;;;;18.88;2.50;;;6.70;99.90;;;;;;5011356;28;20548;-72
2022/01/05 11:23:20;;;;;;;22.50;3.80;;;6.80;99.90;;;;;;5011922;28;20042;-72
2022/01/05 11:25:47;;;;;;;19.98;3.08;;;6.90;99.90;;;;;;5015542;28;20060;-72
2022/01/05 11:28:14;;;;;;;17.05;3.03;;;6.80;99.90;;;;;;5025922;28;20124;-72
2022/01/05 11:30:41;;;;;;;26.48;2.97;;;6.80;99.90;;;;;;5009482;28;20030;-73
2022/01/05 11:33:07;;;;;;;35.97;3.53;;;6.90;99.90;;;;;;5009402;28;20038;-71
2022/01/05 11:35:33;;;;;;;19.33;2.50;;;6.90;99.90;;;;;;5009526;28;20482;-72
2022/01/05 11:38:00;;;;;;;20.20;3.53;;;6.90;99.90;;;;;;5009504;28;20124;-73
2022/01/05 11:40:26;;;;;;;18.52;3.58;;;6.90;99.90;;;;;;5010777;28;20669;-72
2022/01/05 11:42:58;;;;;;;9.93;2.72;;;6.90;99.90;;;;;;5010424;28;20046;-73
2022/01/05 11:45:33;;;;;;;21.33;4.50;;;6.90;99.90;;;;;;5009498;28;20057;-73
2022/01/05 11:48:24;;;;;;;11.85;2.22;;;6.90;99.90;;;;;;5025193;28;20501;-72
2022/01/05 11:50:59;;;;;;;16.55;3.72;;;6.90;99.90;;;;;;5009391;28;20053;-71
2022/01/05 11:53:40;;;;;;;17.50;3.83;;;6.90;99.90;;;;;;5010417;28;20100;-72
2022/01/05 11:56:09;;;;;;;22.75;4.97;;;6.90;99.90;;;;;;5009213;28;20092;-72
2022/01/05 11:58:48;;;;;;;14.88;3.53;;;6.90;99.90;;;;;;5010607;28;20034;-72
2022/01/05 12:01:16;;;;;;;26.60;5.53;;;6.90;99.90;;;;;;5010560;28;20041;-71
2022/01/05 12:03:56;;;;;;;21.33;4.47;;;6.90;99.90;;;;;;5008986;28;20081;-71
2022/01/05 12:06:46;;;;;;;20.13;3.60;;;6.90;99.90;;;;;;4993166;28;20054;-71
2022/01/05 12:09:23;;;;;;;17.85;4.55;;;6.90;99.90;;;;;;5008140;28;20591;-71
2022/01/05 12:11:50;;;;;;;13.75;2.65;;;6.90;99.90;;;;;;5015530;28;20707;-71
2022/01/05 12:14:21;;;;;;;17.80;3.30;;;7.00;99.90;;;;;;5028841;28;20042;-71
2022/01/05 12:16:59;;;;;;;7.88;1.95;;;7.00;99.90;;;;;;5028722;28;20128;-71
2022/01/05 12:19:26;;;;;;;16.88;4.00;;;7.00;99.90;;;;;;5028988;28;20449;-71
2022/01/05 12:21:54;;;;;;;19.92;5.22;;;7.00;99.90;;;;;;5029850;28;20041;-71
2022/01/05 12:24:21;;;;;;;19.77;6.20;;;7.00;99.90;;;;;;5030273;28;20084;-71
2022/01/05 12:27:19;;;;;;;14.88;3.60;;;7.10;99.90;;;;;;5028097;28;20041;-71
2022/01/05 12:29:46;;;;;;;12.43;3.35;;;7.00;99.90;;;;;;5022148;28;20056;-71
2022/01/05 12:32:31;;;;;;;16.05;5.20;;;7.00;99.90;;;;;;5028724;28;20132;-72
2022/01/05 12:35:05;;;;;;;9.20;2.83;;;7.00;99.90;;;;;;5044316;28;20068;-72
2022/01/05 12:37:46;;;;;;;20.42;4.43;;;7.00;99.90;;;;;;5036582;28;20037;-73
2022/01/05 12:40:32;;;;;;;11.38;2.05;;;7.00;99.90;;;;;;5036323;28;20570;-71
2022/01/05 12:43:12;;;;;;;17.15;4.47;;;7.00;99.90;;;;;;5042528;28;20212;-73
2022/01/05 12:45:59;;;;;;;18.55;5.10;;;7.00;99.90;;;;;;5033570;28;20090;-72
2022/01/05 12:48:36;;;;;;;14.90;3.15;;;7.00;99.90;;;;;;5034799;28;20040;-71
2022/01/05 12:51:14;;;;;;;14.57;3.17;;;7.10;99.90;;;;;;5034747;28;20175;-72
2022/01/05 12:54:09;;;;;;;10.43;2.60;;;7.10;99.90;;;;;;5034486;28;20044;-70
2022/01/05 12:56:36;;;;;;;18.67;2.67;;;7.10;99.90;;;;;;5034374;28;20052;-71
2022/01/05 12:59:05;;;;;;;14.27;2.65;;;7.10;99.90;;;;;;5034699;28;20055;-73